METAR AND TAF INFORMATION
METAR FOR ENSD
ADDS - METARS form results

(1001 UTC 24 May 2019)
Data provider http://aviationweather.gov/metar/data/
 
METAR text: ENSD 240950Z 30011KT 260V330 9999 SCT030 BKN045 15/09 Q1005 RMK WIND 1138FT VRB05KT
Conditions at: ENSD (SANDANE/ANDA , NO) observed 0950 UTC 24 May 2019
Temperature: 15.0°C (59°F)
Dewpoint: 9.0°C (48°F) [RH = 67%]
Pressure (altimeter): 29.68 inches Hg (1005.0 mb)
Winds: from the WNW (300 degrees) at 13 MPH (11 knots; 5.7 m/s)
Visibility: 6 or more miles (10+ km)
Ceiling: 4500 feet AGL
Clouds: scattered clouds at 3000 feet AGL
broken clouds at 4500 feet AGL
Weather: no significant weather observed at this time

 AIRPORT MAP

 RUNWAY INFORMATION
Runway 09 Runway length 2756 ft Runway width 98 ft
Runway elevation 181 ft Runway displaced threshold 0 ft Runway heading 0
Runway 27 Runway length 2756 ft Runway width 98 ft
Runway elevation 179 ft Runway displaced threshold 0 ft Runway heading 0

 AIRPORT FREQUENCIES

 AIRPORT NEAR NAVIGATION AIDS
Type NDB Name Anda Frequency 288 KHZ



Powered by Virtual Airlines Manager [v2.6.2]